ENOV/HOV METAR and TAF weather

Enter ICAO airport designator
Station Type Date Time Source
ENOV METAR 2022/06/27 16:50 UTC NOAA

ENOV 271650Z VRB01KT 9999 FEW020 SCT160 18/13 Q1016 RMK WIND RWY24 VRB02KT WIND 2090FT 30009KT


Station Type Date Time Source
ENOV Decoded METAR 2022/06/27 16:50 UTC NOAA

Orsta-Volda / Hovden, Norway (ENOV) 62-11N 006-04E 74M
Jun 27, 2022 - 12:50 PM EDT / 2022.06.27 1650 UTC
Wind: Variable at 1 MPH (1 KT):0
Visibility: greater than 7 mile(s):0
Sky conditions: partly cloudy
Temperature: 64 F (18 C)
Dew Point: 55 F (13 C)
Relative Humidity: 72%
Pressure (altimeter): 30.00 in. Hg (1016 hPa)
ob: ENOV 271650Z VRB01KT 9999 FEW020 SCT160 18/13 Q1016 RMK WIND RWY24 VRB02KT WIND 2090FT 30009KT
cycle: 17

Station Type Date Time Source
ENOV TAF UTC NOAA

Error!

Example: see airport list